Chesterhill, Ohio
Current Conditions -  °F | °C
As of 8:53 AM on Thursday 27 Nov 2014 (Local Time) from KPKB Reporting Station
Overcast Overcast  
Wind Chill: 27°   Ceiling: 4200
Heat Index: 33°   Visibility: 9mi
Dew Point: 25°   Wind: 7mph
Humidity: 72%   Direction: NA
Pressure: 30.13"   Gusts: NA
Location:  39.49°N, 81.87°W
Report Text: KPKB 271353Z VRB06KT 9SM OVC042 01/M04 A3013 RMK AO2 SLP211 T00061039
Loading
Personal Weather Stations






























Interactive Weather Map New forecast layout! Learn more

10-Day Weather Forecast

Advertisements
Track Severe Weather on mobile